Aeroporto :
LOGIN :

Iscrizione | Disclaimer

   EN    FR    IT 

 










Sommario :    VFR   VFR Marginale   IFR   IFR Intensivo   IFR Molto Intensivo
Visibilità : 
Base nubi : 
>= 8 km
>= 3000ft
5 / 8 km
1000 / 3000 ft
1500m / 5 km
500 / 1000 ft
800 / 1500m
200 / 500 ft
< 800m
< 200 ft
Simboli :   Temporali  Nebbia  Neve Forte  Precipitazioni Forti  Vento > 20 kt
SIGMETs :   Varie  Temporali  Ghiacco  Turbolenza  Onda orograficha  Ceneri Vulcaniche







- Altitudine del aeroporto : 28 ft
- Codice IATA : SOZ
- Carte del aeroporto


LFKS - Solenzara

ULTIMO METAR :
  • 130100Z AUTO 34005KT 9999 BKN066 OVC150 10/06 Q1013

METARs OBSOLETI :
  • 130030Z AUTO 29004KT 9999 FEW058 SCT092 BKN130 10/07 Q1013
  • 130000Z AUTO VRB03KT 9999 BKN060 BKN072 OVC120 10/07 Q1013
  • 122330Z AUTO 28004KT 9999 SCT066 SCT096 BKN120 10/07 Q1013
  • 122300Z AUTO 28004KT 9999 FEW037 SCT064 OVC150 09/06 Q1014
  • 122230Z AUTO VRB03KT CAVOK 09/06 Q1014

TAF AMD TAF LFKS
Valido dal 12 a 15 ore il 13 a 15 ore UTC


121544Z 1215/1315 21005KT 9999 SCT040 BKN130
TEMPO 1216/1221 FEW040TCU
BECMG 1313/1315 -RA OVC015
Nessun NOTAM noto per questo aeroporto.



MetMap, La meteo Aeronautica in un colpo d'occhio ! - Copyright ORBIFLY Dicembre 2007 - Disclaimer

ORBIFLY MET'MAP TEAM :

Programmazione e sviluppo : Alexandra Zaïnal
Concezione e sviluppo : Baudouin d'Aumeries
Co-Programmazione e sviluppo : Marc-Olivier Méhu
Supporto tecnico e logistico : Manuel Goepfert
Aiuto per la traduzione : Arnaldo La Scala

Contatto : metmap@orbifly.com




FONTI E CREDITI :

   NOAA